createdAt,value
2018-10-02T00:01:26.352Z,61.1
2018-10-02T00:06:23.111Z,61.1
2018-10-02T00:11:19.363Z,61.5
2018-10-02T00:16:15.635Z,61.2
2018-10-02T00:21:12.193Z,61.4
2018-10-02T00:26:08.622Z,61.5
2018-10-02T00:31:05.556Z,61.4
2018-10-02T00:36:01.974Z,61.3
2018-10-02T00:40:58.291Z,61.3
2018-10-02T00:45:54.334Z,61.9
2018-10-02T00:50:51.126Z,61.8
2018-10-02T00:55:47.564Z,61.4
2018-10-02T01:00:44.271Z,61.5
2018-10-02T01:05:40.767Z,61.4
2018-10-02T01:10:37.108Z,62
2018-10-02T01:15:33.307Z,62.2
2018-10-02T01:20:29.403Z,62.3
2018-10-02T01:25:25.957Z,62.4
2018-10-02T01:30:22.598Z,62.5
2018-10-02T01:35:18.849Z,62.3
2018-10-02T01:40:15.158Z,62.5
2018-10-02T01:45:11.564Z,62.6
2018-10-02T01:50:08.037Z,62.4
2018-10-02T01:55:04.461Z,62.5
2018-10-02T02:00:01.508Z,62.3
2018-10-02T02:04:57.905Z,62.4
2018-10-02T02:09:54.472Z,62.2
2018-10-02T02:14:50.495Z,62.5
2018-10-02T02:19:46.921Z,62.8
2018-10-02T02:24:43.423Z,62.5
2018-10-02T02:29:39.951Z,62.4
2018-10-02T02:34:36.406Z,62.5
2018-10-02T02:39:32.681Z,62.5
2018-10-02T02:44:29.105Z,62.6
2018-10-02T02:49:25.480Z,62.5
2018-10-02T02:54:22.022Z,62.6
2018-10-02T02:59:19.031Z,62.8
2018-10-02T03:04:15.320Z,62.6
2018-10-02T03:09:11.657Z,63.2
2018-10-02T03:14:08.116Z,63.2
2018-10-02T03:19:04.493Z,63.1
2018-10-02T03:24:01.218Z,63.1
2018-10-02T03:28:57.444Z,62.7
2018-10-02T03:33:53.906Z,62.7
2018-10-02T03:38:50.257Z,63.1
2018-10-02T03:43:46.907Z,63.3
2018-10-02T03:48:43.229Z,63.4
2018-10-02T03:53:39.641Z,63.5
2018-10-02T03:58:36.154Z,63.6
2018-10-02T04:03:32.547Z,63.9
2018-10-02T04:08:29.133Z,63.8
2018-10-02T04:13:25.372Z,64
2018-10-02T04:18:21.636Z,64.4
2018-10-02T04:23:17.938Z,64.6
2018-10-02T04:28:14.256Z,64.5
2018-10-02T04:33:10.568Z,64.3
2018-10-02T04:38:06.519Z,64.5
2018-10-02T04:43:02.776Z,64.8
2018-10-02T04:47:59.194Z,65.3
2018-10-02T04:52:55.370Z,65.4
2018-10-02T04:57:52.000Z,65.2
2018-10-02T05:02:48.247Z,64.9
2018-10-02T05:07:44.595Z,65
2018-10-02T05:12:40.730Z,65
2018-10-02T05:17:37.127Z,65.3
2018-10-02T05:22:33.350Z,64.7
2018-10-02T05:27:29.959Z,64.8
2018-10-02T05:32:26.236Z,64.7
2018-10-02T05:37:22.644Z,64.6
2018-10-02T05:42:18.703Z,64.3
2018-10-02T05:47:15.220Z,64.4
2018-10-02T05:52:11.403Z,64.1
2018-10-02T05:57:08.002Z,64.1
2018-10-02T06:02:04.197Z,64
2018-10-02T06:07:00.606Z,63.9
2018-10-02T06:11:57.245Z,64
2018-10-02T06:16:53.814Z,64.1
2018-10-02T06:21:50.221Z,64.2
2018-10-02T06:26:46.724Z,64
2018-10-02T06:31:43.162Z,63.8
2018-10-02T06:36:39.567Z,63.9
2018-10-02T06:41:35.997Z,64.1
2018-10-02T06:46:32.437Z,64.2
2018-10-02T06:51:29.207Z,64.4
2018-10-02T06:56:25.551Z,64.3
2018-10-02T07:01:22.142Z,64.4
2018-10-02T07:06:18.368Z,64.8
2018-10-02T07:11:15.029Z,64.6
2018-10-02T07:16:11.796Z,64.8
2018-10-02T07:21:08.201Z,64.5
2018-10-02T07:26:05.008Z,64.4
2018-10-02T07:31:01.187Z,64.5
2018-10-02T07:35:57.463Z,64.5
2018-10-02T07:40:54.121Z,64.4
2018-10-02T07:45:50.505Z,64.3
2018-10-02T07:50:47.522Z,64.2
2018-10-02T07:55:43.778Z,64.1
2018-10-02T08:00:40.444Z,64.3
2018-10-02T08:05:37.528Z,64.2
2018-10-02T08:10:33.798Z,64.3
2018-10-02T08:15:30.416Z,64.2
2018-10-02T08:20:27.332Z,64
2018-10-02T08:25:24.061Z,64
2018-10-02T08:30:20.507Z,63.8
2018-10-02T08:35:17.075Z,64
2018-10-02T08:40:14.039Z,63.8
2018-10-02T08:45:10.532Z,63.6
2018-10-02T08:50:07.143Z,63.4
2018-10-02T08:55:03.583Z,63.4
2018-10-02T09:00:00.354Z,63.1
2018-10-02T09:04:56.701Z,62.8
2018-10-02T09:09:53.350Z,62.7
2018-10-02T09:14:49.799Z,62.6
2018-10-02T09:19:46.315Z,62.3
2018-10-02T09:24:43.274Z,61.9
2018-10-02T09:29:39.701Z,61.7
2018-10-02T09:34:35.369Z,61.2
2018-10-02T09:39:31.524Z,61
2018-10-02T09:44:27.495Z,60.8
2018-10-02T09:49:25.028Z,60.2
2018-10-02T09:54:21.753Z,59.4
2018-10-02T09:59:18.536Z,58.5
2018-10-02T10:04:16.035Z,58
2018-10-02T10:09:12.331Z,57.6
2018-10-02T10:14:08.921Z,56.9
2018-10-02T10:19:05.512Z,56.7
2018-10-02T10:24:02.427Z,56
2018-10-02T10:28:58.971Z,56
2018-10-02T10:33:55.493Z,55.5
2018-10-02T10:38:52.161Z,55.3
2018-10-02T10:43:48.576Z,55.6
2018-10-02T10:48:44.558Z,55.3
2018-10-02T10:53:41.427Z,55.1
2018-10-02T10:58:37.997Z,53.8
2018-10-02T11:03:35.289Z,54
2018-10-02T11:08:31.340Z,53.9
2018-10-02T11:13:27.833Z,53.5
2018-10-02T11:18:24.332Z,53.1
2018-10-02T11:23:22.284Z,52.8
2018-10-02T11:28:18.195Z,51.5
2018-10-02T11:33:14.876Z,51.3
2018-10-02T11:38:11.675Z,50.2
2018-10-02T11:43:08.219Z,50.2
2018-10-02T11:48:05.173Z,49.5
2018-10-02T11:53:02.448Z,48.6
2018-10-02T11:57:59.387Z,47.9
2018-10-02T12:02:56.096Z,46.8
2018-10-02T12:07:52.452Z,47
2018-10-02T12:12:49.303Z,46.2
2018-10-02T12:17:45.826Z,45
2018-10-02T12:22:42.464Z,45.4
2018-10-02T12:27:39.207Z,45.1
2018-10-02T12:32:35.563Z,44.6
2018-10-02T12:37:31.980Z,43.9
2018-10-02T12:42:28.644Z,44
2018-10-02T12:47:25.124Z,43.5
2018-10-02T12:52:21.981Z,43.5
2018-10-02T12:57:18.615Z,43
2018-10-02T13:02:15.236Z,43.3
2018-10-02T13:07:12.088Z,42.4
2018-10-02T13:12:08.462Z,42.9
2018-10-02T13:17:04.787Z,42.2
2018-10-02T13:22:01.808Z,42.6
2018-10-02T13:26:58.094Z,42.4
2018-10-02T13:31:54.837Z,42.4
2018-10-02T13:36:51.153Z,42.2
2018-10-02T13:41:47.890Z,41.6
2018-10-02T13:46:44.296Z,41.7
2018-10-02T13:51:40.835Z,41.1
2018-10-02T13:56:36.940Z,41.4
2018-10-02T14:01:33.814Z,41.6
2018-10-02T14:06:30.163Z,42
2018-10-02T14:11:27.887Z,41.5
2018-10-02T14:16:24.197Z,41.5
2018-10-02T14:21:20.692Z,41.5
2018-10-02T14:26:17.060Z,41.8
2018-10-02T14:31:13.446Z,41.6
2018-10-02T14:36:09.997Z,41.4
2018-10-02T14:41:06.590Z,41.7
2018-10-02T14:46:03.296Z,42.1
2018-10-02T14:51:00.060Z,42.2
2018-10-02T14:55:56.622Z,42.1
2018-10-02T15:00:53.653Z,42.3
2018-10-02T15:05:50.080Z,42.4
2018-10-02T15:10:46.652Z,42.3
2018-10-02T15:15:43.135Z,42.3
2018-10-02T15:20:39.427Z,42.6
2018-10-02T15:25:35.975Z,42.6
2018-10-02T15:30:32.538Z,42.6
2018-10-02T15:35:28.942Z,42.8
2018-10-02T15:40:25.995Z,43.6
2018-10-02T15:45:22.270Z,44.1
2018-10-02T15:50:18.882Z,44.4
2018-10-02T15:55:15.496Z,44.7
2018-10-02T16:00:12.109Z,45
2018-10-02T16:05:09.019Z,45.4
2018-10-02T16:10:05.823Z,45.7
2018-10-02T16:15:01.876Z,45.9
2018-10-02T16:19:58.558Z,46.2
2018-10-02T16:24:54.982Z,46.7
2018-10-02T16:29:51.437Z,47
2018-10-02T16:34:49.288Z,47.3
2018-10-02T16:39:44.346Z,47.6
2018-10-02T16:44:40.825Z,47.7
2018-10-02T16:49:37.482Z,47.5
2018-10-02T16:54:33.813Z,47.6
2018-10-02T16:59:30.510Z,48.1
2018-10-02T17:04:27.247Z,48.1
2018-10-02T17:09:23.690Z,48.5
2018-10-02T17:14:20.739Z,49
2018-10-02T17:19:16.765Z,49.5
2018-10-02T17:24:13.241Z,49.7
2018-10-02T17:29:09.930Z,50.1
2018-10-02T17:34:06.655Z,50.6
2018-10-02T17:39:02.885Z,50.7
2018-10-02T17:43:59.262Z,51.6
2018-10-02T17:48:55.213Z,51.5
2018-10-02T17:53:51.692Z,51.7
2018-10-02T17:58:48.472Z,51.7
2018-10-02T18:03:44.822Z,52.1
2018-10-02T18:08:41.392Z,52.4
2018-10-02T18:13:38.042Z,52.9
2018-10-02T18:18:34.682Z,53.3
2018-10-02T18:23:31.185Z,53.3
2018-10-02T18:28:27.708Z,50.8
2018-10-02T18:33:24.265Z,50.1
2018-10-02T18:38:20.635Z,49.7
2018-10-02T18:43:17.248Z,49.7
2018-10-02T18:48:13.025Z,49.8
2018-10-02T18:53:09.092Z,50
2018-10-02T18:58:06.678Z,50.1
2018-10-02T19:03:03.475Z,50.3
2018-10-02T19:07:59.467Z,50.6
2018-10-02T19:12:55.923Z,50.5
2018-10-02T19:17:52.492Z,50.6
2018-10-02T19:22:48.656Z,50.7
2018-10-02T19:27:45.356Z,50.8
2018-10-02T19:32:41.928Z,51
2018-10-02T19:37:38.291Z,51.1
2018-10-02T19:42:35.094Z,51.4
2018-10-02T19:47:31.148Z,51.6
2018-10-02T19:52:26.749Z,51.9
2018-10-02T19:57:23.143Z,52
2018-10-02T20:02:19.683Z,52.5
2018-10-02T20:07:16.055Z,52.7
2018-10-02T20:12:12.400Z,52.8
2018-10-02T20:17:08.719Z,53.1
2018-10-02T20:22:05.139Z,53.2
2018-10-02T20:27:01.495Z,53.5
2018-10-02T20:31:57.867Z,53.6
2018-10-02T20:36:53.604Z,53.8
2018-10-02T20:41:50.039Z,54.1
2018-10-02T20:46:45.992Z,54.3
2018-10-02T20:51:42.309Z,54.7
2018-10-02T20:56:38.751Z,55.1
2018-10-02T21:01:35.157Z,55.5
2018-10-02T21:06:31.752Z,55.8
2018-10-02T21:11:28.019Z,56
2018-10-02T21:16:24.559Z,56.1
2018-10-02T21:21:20.947Z,56.6
2018-10-02T21:26:17.185Z,56.8
2018-10-02T21:31:13.528Z,56.7
2018-10-02T21:36:10.054Z,57.1
2018-10-02T21:41:06.390Z,57.1
2018-10-02T21:46:03.437Z,57.3
2018-10-02T21:50:59.541Z,57.1
2018-10-02T21:55:56.291Z,57.5
2018-10-02T22:00:52.695Z,57.5
2018-10-02T22:05:49.669Z,57.6
2018-10-02T22:10:46.223Z,57.9
2018-10-02T22:15:42.798Z,57.9
2018-10-02T22:20:39.321Z,58.2
2018-10-02T22:25:35.857Z,58.1
2018-10-02T22:30:32.573Z,58.5
2018-10-02T22:35:28.480Z,58.4
2018-10-02T22:40:25.025Z,58.8
2018-10-02T22:45:21.450Z,58.7
2018-10-02T22:50:17.959Z,59
2018-10-02T22:55:14.928Z,59.1
2018-10-02T23:00:11.969Z,58.9
2018-10-02T23:05:08.695Z,59.2
2018-10-02T23:10:05.039Z,59
2018-10-02T23:15:02.011Z,59.2
2018-10-02T23:19:58.378Z,59.4
2018-10-02T23:24:54.931Z,59.7
2018-10-02T23:29:51.651Z,59.6
2018-10-02T23:34:48.190Z,59.6
2018-10-02T23:39:44.858Z,59.6
2018-10-02T23:44:41.485Z,60.1
2018-10-02T23:49:38.016Z,60.2
2018-10-02T23:54:34.963Z,60.4
2018-10-02T23:59:31.551Z,60.4
